createdAt,value
2023-06-07T00:00:48.200Z,13.20
2023-06-07T00:03:16.199Z,13.10
2023-06-07T00:05:44.632Z,13.20
2023-06-07T00:08:11.459Z,13.20
2023-06-07T00:10:38.322Z,13.10
2023-06-07T00:13:05.324Z,13.10
2023-06-07T00:15:32.143Z,13.20
2023-06-07T00:18:01.494Z,13.20
2023-06-07T00:20:28.848Z,13.20
2023-06-07T00:22:59.228Z,13.20
2023-06-07T00:25:26.755Z,13.10
2023-06-07T00:27:54.328Z,13.00
2023-06-07T00:30:21.168Z,13.10
2023-06-07T00:32:47.969Z,13.10
2023-06-07T00:35:14.938Z,13.10
2023-06-07T00:37:42.362Z,13.10
2023-06-07T00:40:09.717Z,13.20
2023-06-07T00:42:36.563Z,13.20
2023-06-07T00:45:03.363Z,13.10
2023-06-07T00:47:30.177Z,13.10
2023-06-07T00:49:57.589Z,13.00
2023-06-07T00:52:24.298Z,13.00
2023-06-07T00:54:51.441Z,12.90
2023-06-07T00:57:18.238Z,12.90
2023-06-07T00:59:45.067Z,12.90
2023-06-07T01:02:16.309Z,12.90
2023-06-07T01:04:43.509Z,12.80
2023-06-07T01:07:10.365Z,12.80
2023-06-07T01:09:37.086Z,12.80
2023-06-07T01:12:07.592Z,12.80
2023-06-07T01:14:34.323Z,12.80
2023-06-07T01:17:03.402Z,12.90
2023-06-07T01:19:31.055Z,12.90
2023-06-07T01:22:00.581Z,12.90
2023-06-07T01:24:31.140Z,12.80
2023-06-07T01:26:58.513Z,12.80
2023-06-07T01:29:28.417Z,12.70
2023-06-07T01:31:55.938Z,12.80
2023-06-07T01:34:22.693Z,12.70
2023-06-07T01:36:49.673Z,12.60
2023-06-07T01:39:16.615Z,12.60
2023-06-07T01:41:43.337Z,12.70
2023-06-07T01:44:10.111Z,12.60
2023-06-07T01:46:37.163Z,12.70
2023-06-07T01:49:04.502Z,12.70
2023-06-07T01:51:31.752Z,12.60
2023-06-07T01:53:58.479Z,12.60
2023-06-07T01:56:26.937Z,12.60
2023-06-07T01:59:35.135Z,12.60
2023-06-07T02:02:21.748Z,12.60
2023-06-07T02:04:50.253Z,12.60
2023-06-07T02:07:23.561Z,12.70
2023-06-07T02:09:50.667Z,12.50
2023-06-07T02:12:17.964Z,12.50
2023-06-07T02:14:44.807Z,12.50
2023-06-07T02:17:12.328Z,12.50
2023-06-07T02:19:39.208Z,12.40
2023-06-07T02:22:07.232Z,12.30
2023-06-07T02:24:34.557Z,12.30
2023-06-07T02:27:01.535Z,12.30
2023-06-07T02:29:28.326Z,12.30
2023-06-07T02:31:58.936Z,12.30
2023-06-07T02:34:25.896Z,12.30
2023-06-07T02:36:52.751Z,12.30
2023-06-07T02:39:19.523Z,12.30
2023-06-07T02:41:46.236Z,12.30
2023-06-07T02:44:13.051Z,12.30
2023-06-07T02:46:39.822Z,12.30
2023-06-07T02:49:06.778Z,12.30
2023-06-07T02:51:33.586Z,12.30
2023-06-07T02:54:01.573Z,12.30
2023-06-07T02:56:30.342Z,12.30
2023-06-07T02:58:57.192Z,12.30
2023-06-07T03:01:28.570Z,12.40
2023-06-07T03:03:56.385Z,12.40
2023-06-07T03:06:23.158Z,12.40
2023-06-07T03:08:50.190Z,12.50
2023-06-07T03:11:16.938Z,12.40
2023-06-07T03:13:43.640Z,12.40
2023-06-07T03:16:10.679Z,12.40
2023-06-07T03:18:37.394Z,12.40
2023-06-07T03:21:04.734Z,12.40
2023-06-07T03:23:31.549Z,12.40
2023-06-07T03:26:00.104Z,12.40
2023-06-07T03:28:27.925Z,12.40
2023-06-07T03:30:54.642Z,12.40
2023-06-07T03:33:21.369Z,12.30
2023-06-07T03:35:48.120Z,12.30
2023-06-07T03:38:14.887Z,12.30
2023-06-07T03:40:41.646Z,12.30
2023-06-07T03:43:08.453Z,12.30
2023-06-07T03:45:35.283Z,12.20
2023-06-07T03:48:02.140Z,12.20
2023-06-07T03:50:28.976Z,12.20
2023-06-07T03:52:55.894Z,12.20
2023-06-07T03:55:22.639Z,12.20
2023-06-07T03:57:49.444Z,12.20
2023-06-07T04:00:18.594Z,12.30
2023-06-07T04:02:45.424Z,12.30
2023-06-07T04:05:13.812Z,12.30
2023-06-07T04:07:41.809Z,12.30
2023-06-07T04:10:08.793Z,12.30
2023-06-07T04:12:35.527Z,12.20
2023-06-07T04:15:02.445Z,12.20
2023-06-07T04:17:29.308Z,12.10
2023-06-07T04:19:57.749Z,12.10
2023-06-07T04:22:25.567Z,12.10
2023-06-07T04:24:52.963Z,12.10
2023-06-07T04:27:19.888Z,12.10
2023-06-07T04:29:50.120Z,12.00
2023-06-07T04:32:19.956Z,12.10
2023-06-07T04:34:49.932Z,12.10
2023-06-07T04:37:17.424Z,12.10
2023-06-07T04:39:45.979Z,12.10
2023-06-07T04:42:12.722Z,12.10
2023-06-07T04:44:39.487Z,12.20
2023-06-07T04:47:10.095Z,12.20
2023-06-07T04:49:39.940Z,12.20
2023-06-07T04:52:07.615Z,12.20
2023-06-07T04:54:37.357Z,12.30
2023-06-07T04:57:05.534Z,12.20
2023-06-07T04:59:35.895Z,12.20
2023-06-07T05:02:03.265Z,12.20
2023-06-07T05:04:32.104Z,12.20
2023-06-07T05:06:59.968Z,12.20
2023-06-07T05:09:30.199Z,12.30
2023-06-07T05:11:57.661Z,12.30
2023-06-07T05:14:24.410Z,12.30
2023-06-07T05:16:52.209Z,12.30
2023-06-07T05:19:19.766Z,12.30
2023-06-07T05:21:46.531Z,12.30
2023-06-07T05:24:16.609Z,12.30
2023-06-07T05:26:44.384Z,12.30
2023-06-07T05:29:11.326Z,12.20
2023-06-07T05:31:40.763Z,12.20
2023-06-07T05:34:08.231Z,12.20
2023-06-07T05:36:36.322Z,12.30
2023-06-07T05:39:04.149Z,12.30
2023-06-07T05:41:31.378Z,12.40
2023-06-07T05:43:58.262Z,12.40
2023-06-07T05:46:25.076Z,12.40
2023-06-07T05:48:52.092Z,12.50
2023-06-07T05:51:19.287Z,12.50
2023-06-07T05:53:46.573Z,12.40
2023-06-07T05:56:17.773Z,12.50
2023-06-07T05:58:46.174Z,12.50
2023-06-07T06:01:14.528Z,12.60
2023-06-07T06:03:41.399Z,12.60
2023-06-07T06:06:16.400Z,12.60
2023-06-07T06:08:43.697Z,12.70
2023-06-07T06:11:12.148Z,12.70
2023-06-07T06:13:41.389Z,12.80
2023-06-07T06:16:10.382Z,12.90
2023-06-07T06:18:40.219Z,12.90
2023-06-07T06:21:07.327Z,12.90
2023-06-07T06:23:34.085Z,13.00
2023-06-07T06:26:01.185Z,13.00
2023-06-07T06:28:27.928Z,13.00
2023-06-07T06:30:55.020Z,13.00
2023-06-07T06:33:22.199Z,13.00
2023-06-07T06:35:49.003Z,13.10
2023-06-07T06:38:16.428Z,13.10
2023-06-07T06:40:43.281Z,13.10
2023-06-07T06:43:10.079Z,13.10
2023-06-07T06:45:36.952Z,13.00
2023-06-07T06:48:04.316Z,13.00
2023-06-07T06:50:33.498Z,13.10
2023-06-07T06:53:01.193Z,13.20
2023-06-07T06:55:28.037Z,13.20
2023-06-07T06:57:54.822Z,13.30
2023-06-07T07:00:21.758Z,13.40
2023-06-07T07:02:48.669Z,13.40
2023-06-07T07:05:16.586Z,13.30
2023-06-07T07:07:43.535Z,13.40
2023-06-07T07:10:11.400Z,13.50
2023-06-07T07:12:39.987Z,13.60
2023-06-07T07:15:07.181Z,13.70
2023-06-07T07:17:34.047Z,13.80
2023-06-07T07:20:01.110Z,13.90
2023-06-07T07:22:29.032Z,13.90
2023-06-07T07:24:59.258Z,13.90
2023-06-07T07:27:26.226Z,13.90
2023-06-07T07:29:53.153Z,14.00
2023-06-07T07:32:19.952Z,14.10
2023-06-07T07:34:46.920Z,14.20
2023-06-07T07:37:14.186Z,14.20
2023-06-07T07:39:41.145Z,14.20
2023-06-07T07:42:08.312Z,14.20
2023-06-07T07:44:35.625Z,14.10
2023-06-07T07:47:02.435Z,14.20
2023-06-07T07:49:29.198Z,14.30
2023-06-07T07:51:56.309Z,14.40
2023-06-07T07:54:23.356Z,14.60
2023-06-07T07:56:50.132Z,14.70
2023-06-07T07:59:16.909Z,14.80
2023-06-07T08:01:43.687Z,14.90
2023-06-07T08:04:10.586Z,14.90
2023-06-07T08:06:39.323Z,14.80
2023-06-07T08:09:07.101Z,14.90
2023-06-07T08:11:33.994Z,15.00
2023-06-07T08:14:01.892Z,15.10
2023-06-07T08:16:28.682Z,15.20
2023-06-07T08:18:59.091Z,15.50
2023-06-07T08:21:28.711Z,15.60
2023-06-07T08:23:56.390Z,15.60
2023-06-07T08:26:23.893Z,15.70
2023-06-07T08:28:50.717Z,15.60
2023-06-07T08:31:19.017Z,15.50
2023-06-07T08:33:46.080Z,15.50
2023-06-07T08:36:13.029Z,15.60
2023-06-07T08:38:41.294Z,15.80
2023-06-07T08:41:08.214Z,16.00
2023-06-07T08:43:37.186Z,16.10
2023-06-07T08:46:05.352Z,15.90
2023-06-07T08:48:33.435Z,15.80
2023-06-07T08:51:01.200Z,15.80
2023-06-07T08:53:29.024Z,15.80
2023-06-07T08:55:55.763Z,16.00
2023-06-07T08:58:25.827Z,16.30
2023-06-07T09:00:54.238Z,16.40
2023-06-07T09:03:21.188Z,16.40
2023-06-07T09:05:48.844Z,16.40
2023-06-07T09:08:15.722Z,16.30
2023-06-07T09:10:43.169Z,16.40
2023-06-07T09:13:10.011Z,16.40
2023-06-07T09:15:36.748Z,16.40
2023-06-07T09:18:03.999Z,16.50
2023-06-07T09:20:34.733Z,16.40
2023-06-07T09:23:04.331Z,16.30
2023-06-07T09:25:31.623Z,16.50
2023-06-07T09:27:58.732Z,16.60
2023-06-07T09:30:26.207Z,16.70
2023-06-07T09:32:53.527Z,16.70
2023-06-07T09:35:20.571Z,16.90
2023-06-07T09:37:55.902Z,17.10
2023-06-07T09:40:23.690Z,17.30
2023-06-07T09:43:00.555Z,17.30
2023-06-07T09:45:28.060Z,17.20
2023-06-07T09:48:05.751Z,17.20
2023-06-07T09:50:33.073Z,17.40
2023-06-07T09:52:59.886Z,17.50
2023-06-07T09:55:28.678Z,17.50
2023-06-07T09:57:56.629Z,17.60
2023-06-07T10:00:24.451Z,17.50
2023-06-07T10:02:51.445Z,17.50
2023-06-07T10:05:22.428Z,17.60
2023-06-07T10:07:55.966Z,17.70
2023-06-07T10:10:25.694Z,17.70
2023-06-07T10:12:52.672Z,17.90
2023-06-07T10:15:24.603Z,18.10
2023-06-07T10:17:57.195Z,18.30
2023-06-07T10:20:28.116Z,18.20
2023-06-07T10:23:05.662Z,18.10
2023-06-07T10:25:38.023Z,18.00
2023-06-07T10:28:31.224Z,18.00
2023-06-07T10:31:04.792Z,18.30
2023-06-07T10:33:31.691Z,18.30
2023-06-07T10:35:58.444Z,18.50
2023-06-07T10:38:25.850Z,18.60
2023-06-07T10:40:55.764Z,18.80
2023-06-07T10:43:22.487Z,18.80
2023-06-07T10:45:49.451Z,18.80
2023-06-07T10:48:46.742Z,18.80
2023-06-07T10:51:14.391Z,19.20
2023-06-07T10:53:57.233Z,19.70
2023-06-07T10:56:34.896Z,20.10
2023-06-07T10:59:14.150Z,20.00
2023-06-07T11:01:41.599Z,19.80
2023-06-07T11:04:09.771Z,19.50
2023-06-07T11:07:10.872Z,19.40
2023-06-07T11:09:37.964Z,19.60
2023-06-07T11:12:06.242Z,20.30
2023-06-07T11:14:32.953Z,20.50
2023-06-07T11:16:59.836Z,20.40
2023-06-07T11:19:27.522Z,20.10
2023-06-07T11:21:58.779Z,20.30
2023-06-07T11:24:26.172Z,20.50
2023-06-07T11:26:53.319Z,20.50
2023-06-07T11:29:20.531Z,20.60
2023-06-07T11:32:00.471Z,20.90
2023-06-07T11:34:28.447Z,21.30
2023-06-07T11:37:10.929Z,21.30
2023-06-07T11:39:37.654Z,21.50
2023-06-07T11:42:04.615Z,21.70
2023-06-07T11:44:31.507Z,22.00
2023-06-07T11:46:58.616Z,22.00
2023-06-07T11:49:25.428Z,22.00
2023-06-07T11:51:57.209Z,21.90
2023-06-07T11:54:25.931Z,21.60
2023-06-07T11:56:54.376Z,21.70
2023-06-07T11:59:24.244Z,22.10
2023-06-07T12:01:55.060Z,21.80
2023-06-07T12:04:22.632Z,22.40
2023-06-07T12:06:50.503Z,22.60
2023-06-07T12:09:20.596Z,22.60
2023-06-07T12:11:48.096Z,23.00
2023-06-07T12:14:32.252Z,23.30
2023-06-07T12:16:59.714Z,23.40
2023-06-07T12:19:26.636Z,23.40
2023-06-07T12:21:53.787Z,23.50
2023-06-07T12:24:20.694Z,23.50
2023-06-07T12:26:47.481Z,23.70
2023-06-07T12:29:14.665Z,23.90
2023-06-07T12:31:44.465Z,24.10
2023-06-07T12:34:11.495Z,24.30
2023-06-07T12:36:39.970Z,24.60
2023-06-07T12:39:08.632Z,24.90
2023-06-07T12:41:35.799Z,25.20
2023-06-07T12:44:05.379Z,25.40
2023-06-07T12:46:32.340Z,25.80
2023-06-07T12:48:59.284Z,26.00
2023-06-07T12:51:26.517Z,25.90
2023-06-07T12:53:53.929Z,25.90
2023-06-07T12:56:24.368Z,26.10
2023-06-07T12:58:51.156Z,26.30
2023-06-07T13:01:18.154Z,26.00
2023-06-07T13:03:45.280Z,26.00
2023-06-07T13:06:12.388Z,25.90
2023-06-07T13:08:39.600Z,25.80
2023-06-07T13:11:06.605Z,26.10
2023-06-07T13:13:34.338Z,26.20
2023-06-07T13:16:01.470Z,26.70
2023-06-07T13:18:30.345Z,26.90
2023-06-07T13:20:57.292Z,27.00
2023-06-07T13:23:24.813Z,27.00
2023-06-07T13:25:51.728Z,26.90
2023-06-07T13:28:20.560Z,26.90
2023-06-07T13:30:47.685Z,26.70
2023-06-07T13:33:18.567Z,26.50
2023-06-07T13:35:45.534Z,26.80
2023-06-07T13:38:12.285Z,27.00
2023-06-07T13:40:39.141Z,27.00
2023-06-07T13:43:05.871Z,26.80
2023-06-07T13:45:32.591Z,27.00
2023-06-07T13:47:59.799Z,27.40
2023-06-07T13:50:26.593Z,27.60
2023-06-07T13:52:54.149Z,27.70
2023-06-07T13:55:21.889Z,27.50
2023-06-07T13:57:49.569Z,27.30
2023-06-07T14:00:17.418Z,27.10
2023-06-07T14:02:44.388Z,27.20
2023-06-07T14:05:11.844Z,27.50
2023-06-07T14:07:39.257Z,28.10
2023-06-07T14:10:07.344Z,28.30
2023-06-07T14:12:34.217Z,28.00
2023-06-07T14:15:01.154Z,27.80
2023-06-07T14:17:27.948Z,27.40
2023-06-07T14:19:54.839Z,27.60
2023-06-07T14:22:21.609Z,27.90
2023-06-07T14:24:48.432Z,28.10
2023-06-07T14:27:15.960Z,28.10
2023-06-07T14:29:42.788Z,28.40
2023-06-07T14:32:10.058Z,28.90
2023-06-07T14:34:36.876Z,28.70
2023-06-07T14:37:03.867Z,28.30
2023-06-07T14:39:30.581Z,28.20
2023-06-07T14:41:57.622Z,28.10
2023-06-07T14:44:25.244Z,28.10
2023-06-07T14:46:51.977Z,28.10
2023-06-07T14:49:18.749Z,28.10
2023-06-07T14:51:48.208Z,28.20
2023-06-07T14:54:15.075Z,28.20
2023-06-07T14:56:41.965Z,28.30
2023-06-07T14:59:08.697Z,28.80
2023-06-07T15:01:35.656Z,29.20
2023-06-07T15:04:02.654Z,29.40
2023-06-07T15:06:29.840Z,29.00
2023-06-07T15:08:56.555Z,29.20
2023-06-07T15:11:23.317Z,28.80
2023-06-07T15:13:50.130Z,28.60
2023-06-07T15:16:16.994Z,28.40
2023-06-07T15:18:43.915Z,28.50
2023-06-07T15:21:10.709Z,28.30
2023-06-07T15:23:37.701Z,28.60
2023-06-07T15:26:04.564Z,28.70
2023-06-07T15:28:31.331Z,28.80
2023-06-07T15:30:58.428Z,29.10
2023-06-07T15:33:25.466Z,29.10
2023-06-07T15:35:52.199Z,29.30
2023-06-07T15:38:19.079Z,29.40
2023-06-07T15:40:46.068Z,29.30
2023-06-07T15:43:14.174Z,29.30
2023-06-07T15:45:40.943Z,29.10
2023-06-07T15:48:07.721Z,28.80
2023-06-07T15:50:34.570Z,29.10
2023-06-07T15:53:04.650Z,29.20
2023-06-07T15:55:33.392Z,29.60
2023-06-07T15:58:00.176Z,29.60
2023-06-07T16:00:37.690Z,29.30
2023-06-07T16:03:06.253Z,29.10
2023-06-07T16:05:33.207Z,29.00
2023-06-07T16:08:04.874Z,29.30
2023-06-07T16:10:37.197Z,29.30
2023-06-07T16:13:03.980Z,29.20
2023-06-07T16:15:31.460Z,29.20
2023-06-07T16:17:58.258Z,28.80
2023-06-07T16:20:25.035Z,28.70
2023-06-07T16:22:52.449Z,28.60
2023-06-07T16:25:19.190Z,28.40
2023-06-07T16:27:45.947Z,28.10
2023-06-07T16:30:12.906Z,28.00
2023-06-07T16:32:39.690Z,28.10
2023-06-07T16:35:06.951Z,28.20
2023-06-07T16:37:33.645Z,28.10
2023-06-07T16:40:00.792Z,28.10
2023-06-07T16:42:28.630Z,28.20
2023-06-07T16:44:55.511Z,28.20
2023-06-07T16:47:22.222Z,28.00
2023-06-07T16:49:48.914Z,27.80
2023-06-07T16:52:15.689Z,27.70
2023-06-07T16:54:42.446Z,27.60
2023-06-07T16:57:09.187Z,28.10
2023-06-07T16:59:36.740Z,28.20
2023-06-07T17:02:03.666Z,28.40
2023-06-07T17:04:31.091Z,28.60
2023-06-07T17:06:57.810Z,28.20
2023-06-07T17:09:24.944Z,27.90
2023-06-07T17:11:51.790Z,28.00
2023-06-07T17:14:20.533Z,27.90
2023-06-07T17:16:47.486Z,27.90
2023-06-07T17:19:14.289Z,27.90
2023-06-07T17:21:41.568Z,28.00
2023-06-07T17:24:09.175Z,27.80
2023-06-07T17:26:35.956Z,27.90
2023-06-07T17:29:12.873Z,27.90
2023-06-07T17:31:49.935Z,27.60
2023-06-07T17:34:16.857Z,27.60
2023-06-07T17:36:43.878Z,27.50
2023-06-07T17:39:13.803Z,27.60
2023-06-07T17:41:40.976Z,27.20
2023-06-07T17:44:07.821Z,27.10
2023-06-07T17:46:34.965Z,26.90
2023-06-07T17:49:01.964Z,26.50
2023-06-07T17:51:30.133Z,26.10
2023-06-07T17:53:56.907Z,26.00
2023-06-07T17:56:26.533Z,25.80
2023-06-07T17:58:53.392Z,25.50
2023-06-07T18:01:20.495Z,25.60
2023-06-07T18:03:47.532Z,25.60
2023-06-07T18:06:14.293Z,25.10
2023-06-07T18:08:40.996Z,24.80
2023-06-07T18:11:08.351Z,24.60
2023-06-07T18:13:35.968Z,24.40
2023-06-07T18:16:02.841Z,24.20
2023-06-07T18:18:31.057Z,23.70
2023-06-07T18:20:57.796Z,23.50
2023-06-07T18:23:24.789Z,23.40
2023-06-07T18:25:51.603Z,23.30
2023-06-07T18:28:18.336Z,22.50
2023-06-07T18:30:45.093Z,22.00
2023-06-07T18:33:11.914Z,21.70
2023-06-07T18:35:38.719Z,21.40
2023-06-07T18:38:05.651Z,21.20
2023-06-07T18:40:33.767Z,20.80
2023-06-07T18:43:00.570Z,20.50
2023-06-07T18:45:27.371Z,20.30
2023-06-07T18:47:54.747Z,20.00
2023-06-07T18:50:21.818Z,19.80
2023-06-07T18:52:48.549Z,19.80
2023-06-07T18:55:15.415Z,19.70
2023-06-07T18:57:42.841Z,19.60
2023-06-07T19:00:09.862Z,19.60
2023-06-07T19:02:36.932Z,19.40
2023-06-07T19:05:04.315Z,19.10
2023-06-07T19:07:31.484Z,18.90
2023-06-07T19:09:58.191Z,18.90
2023-06-07T19:12:28.108Z,18.80
2023-06-07T19:14:55.961Z,18.50
2023-06-07T19:17:22.797Z,18.40
2023-06-07T19:19:49.575Z,18.20
2023-06-07T19:22:16.309Z,18.00
2023-06-07T19:24:45.865Z,17.80
2023-06-07T19:27:12.737Z,17.70
2023-06-07T19:29:41.616Z,17.60
2023-06-07T19:32:09.383Z,17.50
2023-06-07T19:34:36.264Z,17.30
2023-06-07T19:37:03.626Z,17.10
2023-06-07T19:39:32.264Z,17.00
2023-06-07T19:42:01.585Z,16.90
2023-06-07T19:44:29.096Z,16.70
2023-06-07T19:46:58.190Z,16.60
2023-06-07T19:49:25.136Z,16.50
2023-06-07T19:51:51.848Z,16.40
2023-06-07T19:54:18.572Z,16.20
2023-06-07T19:56:45.428Z,16.10
2023-06-07T19:59:12.235Z,15.90
2023-06-07T20:01:39.429Z,15.80
2023-06-07T20:04:06.837Z,15.80
2023-06-07T20:06:35.222Z,15.80
2023-06-07T20:09:03.555Z,15.70
2023-06-07T20:11:30.285Z,15.60
2023-06-07T20:13:57.154Z,15.50
2023-06-07T20:16:24.016Z,15.40
2023-06-07T20:18:50.805Z,15.30
2023-06-07T20:21:17.610Z,15.20
2023-06-07T20:23:44.546Z,15.00
2023-06-07T20:26:11.310Z,14.90
2023-06-07T20:28:38.052Z,14.90
2023-06-07T20:31:06.252Z,14.80
2023-06-07T20:33:33.454Z,14.80
2023-06-07T20:36:01.529Z,14.80
2023-06-07T20:38:28.274Z,14.80
2023-06-07T20:40:55.023Z,14.80
2023-06-07T20:43:21.715Z,14.70
2023-06-07T20:45:48.512Z,14.70
2023-06-07T20:48:15.678Z,14.70
2023-06-07T20:50:42.537Z,14.60
2023-06-07T20:53:09.265Z,14.50
2023-06-07T20:55:36.253Z,14.40
2023-06-07T20:58:03.349Z,14.40
2023-06-07T21:00:30.881Z,14.30
2023-06-07T21:02:57.894Z,14.30
2023-06-07T21:05:26.305Z,14.20
2023-06-07T21:07:53.197Z,14.20
2023-06-07T21:10:19.988Z,14.10
2023-06-07T21:12:46.792Z,14.20
2023-06-07T21:15:13.563Z,14.10
2023-06-07T21:17:40.651Z,14.10
2023-06-07T21:20:09.386Z,14.10
2023-06-07T21:22:36.409Z,14.00
2023-06-07T21:25:03.497Z,14.00
2023-06-07T21:27:30.475Z,14.00
2023-06-07T21:29:58.965Z,13.90
2023-06-07T21:32:27.688Z,13.90
2023-06-07T21:34:55.372Z,13.80
2023-06-07T21:37:22.160Z,13.80
2023-06-07T21:39:48.887Z,13.80
2023-06-07T21:42:15.588Z,13.70
2023-06-07T21:44:42.334Z,13.60
2023-06-07T21:47:09.059Z,13.60
2023-06-07T21:49:35.837Z,13.50
2023-06-07T21:52:02.743Z,13.60
2023-06-07T21:54:30.129Z,13.50
2023-06-07T21:56:56.909Z,13.50
2023-06-07T21:59:23.817Z,13.40
2023-06-07T22:01:54.031Z,13.40
2023-06-07T22:04:21.098Z,13.40
2023-06-07T22:06:48.074Z,13.40
2023-06-07T22:09:14.838Z,13.30
2023-06-07T22:11:45.436Z,13.30
2023-06-07T22:14:15.096Z,13.30
2023-06-07T22:16:48.126Z,13.20
2023-06-07T22:19:15.900Z,13.20
2023-06-07T22:21:43.137Z,13.00
2023-06-07T22:24:10.135Z,13.00
2023-06-07T22:26:37.026Z,13.00
2023-06-07T22:29:04.778Z,13.00
2023-06-07T22:31:35.520Z,13.00
2023-06-07T22:34:05.657Z,13.00
2023-06-07T22:36:33.107Z,12.90
2023-06-07T22:39:01.263Z,12.80
2023-06-07T22:41:28.484Z,12.80
2023-06-07T22:43:56.837Z,12.80
2023-06-07T22:46:24.462Z,12.80
2023-06-07T22:48:52.038Z,12.70
2023-06-07T22:51:19.049Z,12.70
2023-06-07T22:53:45.868Z,12.70
2023-06-07T22:56:12.700Z,12.60
2023-06-07T22:58:39.462Z,12.60
2023-06-07T23:01:06.136Z,12.60
2023-06-07T23:03:33.248Z,12.60
2023-06-07T23:06:00.519Z,12.60
2023-06-07T23:08:30.253Z,12.60
2023-06-07T23:10:57.374Z,12.60
2023-06-07T23:13:24.178Z,12.60
2023-06-07T23:15:52.530Z,12.60
2023-06-07T23:18:19.250Z,12.60
2023-06-07T23:20:46.745Z,12.60
2023-06-07T23:23:13.901Z,12.70
2023-06-07T23:25:40.830Z,12.80
2023-06-07T23:28:07.672Z,12.80
2023-06-07T23:30:34.646Z,12.80
2023-06-07T23:33:01.451Z,12.90
2023-06-07T23:35:28.363Z,13.00
2023-06-07T23:37:55.251Z,12.90
2023-06-07T23:40:22.085Z,13.00
2023-06-07T23:42:52.469Z,13.00
2023-06-07T23:45:22.621Z,13.00
2023-06-07T23:47:49.474Z,13.10
2023-06-07T23:50:16.354Z,13.10
2023-06-07T23:52:43.100Z,13.10
2023-06-07T23:55:10.515Z,13.00
2023-06-07T23:57:37.642Z,12.90
